sensor_id;sensor_type;location;lat;lon;timestamp;P1;durP1;ratioP1;P2;durP2;ratioP2
26474;SDS011;14161;52.270;10.334;2023-04-25T00:02:09;10.32;;;3.65;;
26474;SDS011;14161;52.270;10.334;2023-04-25T00:04:34;12.25;;;3.67;;
26474;SDS011;14161;52.270;10.334;2023-04-25T00:07:00;5.57;;;2.83;;
26474;SDS011;14161;52.270;10.334;2023-04-25T00:09:28;8.40;;;3.53;;
26474;SDS011;14161;52.270;10.334;2023-04-25T00:11:54;6.07;;;2.80;;
26474;SDS011;14161;52.270;10.334;2023-04-25T00:14:19;6.57;;;3.17;;
26474;SDS011;14161;52.270;10.334;2023-04-25T00:16:45;6.22;;;2.95;;
26474;SDS011;14161;52.270;10.334;2023-04-25T00:19:10;8.60;;;3.47;;
26474;SDS011;14161;52.270;10.334;2023-04-25T00:21:36;7.82;;;3.17;;
26474;SDS011;14161;52.270;10.334;2023-04-25T00:24:05;7.72;;;3.60;;
26474;SDS011;14161;52.270;10.334;2023-04-25T00:26:33;6.53;;;3.50;;
26474;SDS011;14161;52.270;10.334;2023-04-25T00:28:58;5.10;;;3.00;;
26474;SDS011;14161;52.270;10.334;2023-04-25T00:31:24;6.05;;;3.53;;
26474;SDS011;14161;52.270;10.334;2023-04-25T00:33:49;7.03;;;4.10;;
26474;SDS011;14161;52.270;10.334;2023-04-25T00:36:15;6.47;;;3.17;;
26474;SDS011;14161;52.270;10.334;2023-04-25T00:38:42;12.05;;;4.22;;
26474;SDS011;14161;52.270;10.334;2023-04-25T00:41:07;6.13;;;3.10;;
26474;SDS011;14161;52.270;10.334;2023-04-25T00:43:33;6.07;;;3.08;;
26474;SDS011;14161;52.270;10.334;2023-04-25T00:45:59;9.18;;;3.17;;
26474;SDS011;14161;52.270;10.334;2023-04-25T00:48:25;10.05;;;4.05;;
26474;SDS011;14161;52.270;10.334;2023-04-25T00:50:55;10.57;;;4.07;;
26474;SDS011;14161;52.270;10.334;2023-04-25T00:53:22;6.25;;;2.72;;
26474;SDS011;14161;52.270;10.334;2023-04-25T00:55:48;7.80;;;3.25;;
26474;SDS011;14161;52.270;10.334;2023-04-25T00:58:16;6.53;;;3.13;;
26474;SDS011;14161;52.270;10.334;2023-04-25T01:00:42;5.07;;;2.72;;
26474;SDS011;14161;52.270;10.334;2023-04-25T01:03:07;8.13;;;2.92;;
26474;SDS011;14161;52.270;10.334;2023-04-25T01:05:33;7.45;;;2.97;;
26474;SDS011;14161;52.270;10.334;2023-04-25T01:07:58;7.45;;;3.47;;
26474;SDS011;14161;52.270;10.334;2023-04-25T01:10:24;5.40;;;2.78;;
26474;SDS011;14161;52.270;10.334;2023-04-25T01:12:49;11.25;;;4.20;;
26474;SDS011;14161;52.270;10.334;2023-04-25T01:15:15;8.38;;;3.95;;
26474;SDS011;14161;52.270;10.334;2023-04-25T01:17:41;8.95;;;3.60;;
26474;SDS011;14161;52.270;10.334;2023-04-25T01:20:09;10.98;;;3.83;;
26474;SDS011;14161;52.270;10.334;2023-04-25T01:22:35;11.55;;;4.30;;
26474;SDS011;14161;52.270;10.334;2023-04-25T01:25:00;8.77;;;3.75;;
26474;SDS011;14161;52.270;10.334;2023-04-25T01:27:26;7.72;;;3.45;;
26474;SDS011;14161;52.270;10.334;2023-04-25T01:29:51;4.90;;;2.40;;
26474;SDS011;14161;52.270;10.334;2023-04-25T01:32:17;5.45;;;3.25;;
26474;SDS011;14161;52.270;10.334;2023-04-25T01:34:43;8.55;;;4.35;;
26474;SDS011;14161;52.270;10.334;2023-04-25T01:37:08;9.68;;;4.82;;
26474;SDS011;14161;52.270;10.334;2023-04-25T01:39:34;7.90;;;3.75;;
26474;SDS011;14161;52.270;10.334;2023-04-25T01:41:59;10.88;;;4.05;;
26474;SDS011;14161;52.270;10.334;2023-04-25T01:44:25;7.22;;;3.45;;
26474;SDS011;14161;52.270;10.334;2023-04-25T01:46:51;6.88;;;3.92;;
26474;SDS011;14161;52.270;10.334;2023-04-25T01:49:16;8.90;;;3.50;;
26474;SDS011;14161;52.270;10.334;2023-04-25T01:51:43;10.63;;;4.20;;
26474;SDS011;14161;52.270;10.334;2023-04-25T01:54:08;5.70;;;3.30;;
26474;SDS011;14161;52.270;10.334;2023-04-25T01:56:36;6.90;;;3.85;;
26474;SDS011;14161;52.270;10.334;2023-04-25T01:59:03;12.75;;;4.72;;
26474;SDS011;14161;52.270;10.334;2023-04-25T02:01:49;11.05;;;4.05;;
26474;SDS011;14161;52.270;10.334;2023-04-25T02:04:21;9.65;;;3.83;;
26474;SDS011;14161;52.270;10.334;2023-04-25T02:06:47;10.68;;;3.92;;
26474;SDS011;14161;52.270;10.334;2023-04-25T02:09:12;7.78;;;4.13;;
26474;SDS011;14161;52.270;10.334;2023-04-25T02:11:43;7.13;;;4.30;;
26474;SDS011;14161;52.270;10.334;2023-04-25T02:14:32;10.05;;;4.50;;
26474;SDS011;14161;52.270;10.334;2023-04-25T02:17:13;5.57;;;3.55;;
26474;SDS011;14161;52.270;10.334;2023-04-25T02:19:39;12.57;;;4.95;;
26474;SDS011;14161;52.270;10.334;2023-04-25T02:22:06;8.98;;;4.63;;
26474;SDS011;14161;52.270;10.334;2023-04-25T02:24:31;8.68;;;5.15;;
26474;SDS011;14161;52.270;10.334;2023-04-25T02:26:58;8.68;;;4.50;;
26474;SDS011;14161;52.270;10.334;2023-04-25T02:29:24;10.55;;;4.25;;
26474;SDS011;14161;52.270;10.334;2023-04-25T02:31:49;10.20;;;4.85;;
26474;SDS011;14161;52.270;10.334;2023-04-25T02:34:16;8.20;;;4.72;;
26474;SDS011;14161;52.270;10.334;2023-04-25T02:36:41;9.85;;;5.35;;
26474;SDS011;14161;52.270;10.334;2023-04-25T02:39:07;10.32;;;5.28;;
26474;SDS011;14161;52.270;10.334;2023-04-25T02:41:33;12.82;;;5.75;;
26474;SDS011;14161;52.270;10.334;2023-04-25T02:43:58;11.30;;;5.30;;
26474;SDS011;14161;52.270;10.334;2023-04-25T02:46:24;12.55;;;5.80;;
26474;SDS011;14161;52.270;10.334;2023-04-25T02:48:51;8.88;;;5.03;;
26474;SDS011;14161;52.270;10.334;2023-04-25T02:51:20;10.43;;;5.13;;
26474;SDS011;14161;52.270;10.334;2023-04-25T02:53:45;12.77;;;6.22;;
26474;SDS011;14161;52.270;10.334;2023-04-25T02:56:11;9.77;;;5.63;;
26474;SDS011;14161;52.270;10.334;2023-04-25T02:58:36;13.02;;;6.85;;
26474;SDS011;14161;52.270;10.334;2023-04-25T03:01:01;8.43;;;5.03;;
26474;SDS011;14161;52.270;10.334;2023-04-25T03:03:27;8.43;;;4.63;;
26474;SDS011;14161;52.270;10.334;2023-04-25T03:05:53;9.45;;;5.00;;
26474;SDS011;14161;52.270;10.334;2023-04-25T03:08:23;10.73;;;5.75;;
26474;SDS011;14161;52.270;10.334;2023-04-25T03:10:50;9.75;;;5.55;;
26474;SDS011;14161;52.270;10.334;2023-04-25T03:13:17;11.18;;;5.30;;
26474;SDS011;14161;52.270;10.334;2023-04-25T03:15:43;12.30;;;5.95;;
26474;SDS011;14161;52.270;10.334;2023-04-25T03:18:08;8.65;;;5.63;;
26474;SDS011;14161;52.270;10.334;2023-04-25T03:20:34;11.52;;;5.10;;
26474;SDS011;14161;52.270;10.334;2023-04-25T03:22:59;8.38;;;5.00;;
26474;SDS011;14161;52.270;10.334;2023-04-25T03:25:27;9.40;;;5.15;;
26474;SDS011;14161;52.270;10.334;2023-04-25T03:27:52;11.55;;;6.20;;
26474;SDS011;14161;52.270;10.334;2023-04-25T03:30:17;8.15;;;4.65;;
26474;SDS011;14161;52.270;10.334;2023-04-25T03:32:43;9.90;;;4.43;;
26474;SDS011;14161;52.270;10.334;2023-04-25T03:35:09;7.63;;;4.30;;
26474;SDS011;14161;52.270;10.334;2023-04-25T03:37:35;10.18;;;4.45;;
26474;SDS011;14161;52.270;10.334;2023-04-25T03:40:00;8.88;;;3.75;;
26474;SDS011;14161;52.270;10.334;2023-04-25T03:42:44;6.30;;;3.47;;
26474;SDS011;14161;52.270;10.334;2023-04-25T03:45:09;8.25;;;3.72;;
26474;SDS011;14161;52.270;10.334;2023-04-25T03:47:36;6.22;;;2.70;;
26474;SDS011;14161;52.270;10.334;2023-04-25T03:50:01;9.75;;;2.95;;
26474;SDS011;14161;52.270;10.334;2023-04-25T03:52:28;5.65;;;2.75;;
26474;SDS011;14161;52.270;10.334;2023-04-25T03:54:53;6.82;;;2.83;;
26474;SDS011;14161;52.270;10.334;2023-04-25T03:57:22;7.65;;;2.92;;
26474;SDS011;14161;52.270;10.334;2023-04-25T03:59:47;15.38;;;3.10;;
26474;SDS011;14161;52.270;10.334;2023-04-25T04:02:14;6.63;;;2.53;;
26474;SDS011;14161;52.270;10.334;2023-04-25T04:04:40;5.20;;;2.22;;
26474;SDS011;14161;52.270;10.334;2023-04-25T04:07:05;9.80;;;2.90;;
26474;SDS011;14161;52.270;10.334;2023-04-25T04:09:34;11.05;;;3.13;;
26474;SDS011;14161;52.270;10.334;2023-04-25T04:12:04;12.23;;;3.28;;
26474;SDS011;14161;52.270;10.334;2023-04-25T04:14:31;8.80;;;2.58;;
26474;SDS011;14161;52.270;10.334;2023-04-25T04:16:56;9.45;;;3.00;;
26474;SDS011;14161;52.270;10.334;2023-04-25T04:19:22;9.95;;;3.00;;
26474;SDS011;14161;52.270;10.334;2023-04-25T04:22:04;11.70;;;2.92;;
26474;SDS011;14161;52.270;10.334;2023-04-25T04:24:30;15.52;;;3.88;;
26474;SDS011;14161;52.270;10.334;2023-04-25T04:27:00;10.10;;;3.10;;
26474;SDS011;14161;52.270;10.334;2023-04-25T04:29:36;13.55;;;3.55;;
26474;SDS011;14161;52.270;10.334;2023-04-25T04:32:09;9.40;;;2.90;;
26474;SDS011;14161;52.270;10.334;2023-04-25T04:34:35;12.98;;;3.60;;
26474;SDS011;14161;52.270;10.334;2023-04-25T04:37:01;13.65;;;3.10;;
26474;SDS011;14161;52.270;10.334;2023-04-25T04:39:27;11.55;;;3.45;;
26474;SDS011;14161;52.270;10.334;2023-04-25T04:42:01;14.65;;;3.38;;
26474;SDS011;14161;52.270;10.334;2023-04-25T04:47:42;9.32;;;2.97;;
26474;SDS011;14161;52.270;10.334;2023-04-25T04:50:31;18.50;;;3.97;;
26474;SDS011;14161;52.270;10.334;2023-04-25T04:53:16;19.60;;;4.22;;
26474;SDS011;14161;52.270;10.334;2023-04-25T04:55:48;8.77;;;3.28;;
26474;SDS011;14161;52.270;10.334;2023-04-25T04:58:32;8.63;;;2.50;;
26474;SDS011;14161;52.270;10.334;2023-04-25T05:01:17;11.77;;;3.15;;
26474;SDS011;14161;52.270;10.334;2023-04-25T05:03:56;15.43;;;3.25;;
26474;SDS011;14161;52.270;10.334;2023-04-25T05:06:44;12.80;;;3.30;;
26474;SDS011;14161;52.270;10.334;2023-04-25T05:09:12;11.93;;;3.30;;
26474;SDS011;14161;52.270;10.334;2023-04-25T05:11:53;15.50;;;3.97;;
26474;SDS011;14161;52.270;10.334;2023-04-25T05:14:33;9.20;;;3.20;;
26474;SDS011;14161;52.270;10.334;2023-04-25T05:17:21;12.43;;;3.30;;
26474;SDS011;14161;52.270;10.334;2023-04-25T05:20:10;9.43;;;3.00;;
26474;SDS011;14161;52.270;10.334;2023-04-25T05:23:04;14.70;;;3.90;;
26474;SDS011;14161;52.270;10.334;2023-04-25T05:25:40;7.03;;;2.58;;
26474;SDS011;14161;52.270;10.334;2023-04-25T05:28:15;10.93;;;3.42;;
26474;SDS011;14161;52.270;10.334;2023-04-25T05:30:52;9.68;;;2.90;;
26474;SDS011;14161;52.270;10.334;2023-04-25T05:33:26;10.18;;;2.60;;
26474;SDS011;14161;52.270;10.334;2023-04-25T05:35:52;10.45;;;2.83;;
26474;SDS011;14161;52.270;10.334;2023-04-25T05:38:18;9.13;;;2.53;;
26474;SDS011;14161;52.270;10.334;2023-04-25T05:41:02;12.45;;;3.10;;
26474;SDS011;14161;52.270;10.334;2023-04-25T05:43:59;13.85;;;3.65;;
26474;SDS011;14161;52.270;10.334;2023-04-25T05:46:48;18.48;;;3.13;;
26474;SDS011;14161;52.270;10.334;2023-04-25T05:49:34;14.23;;;3.22;;
26474;SDS011;14161;52.270;10.334;2023-04-25T05:52:16;10.52;;;2.28;;
26474;SDS011;14161;52.270;10.334;2023-04-25T05:54:56;7.88;;;2.55;;
26474;SDS011;14161;52.270;10.334;2023-04-25T05:57:23;6.45;;;2.63;;
26474;SDS011;14161;52.270;10.334;2023-04-25T05:59:50;7.72;;;3.00;;
26474;SDS011;14161;52.270;10.334;2023-04-25T06:02:16;14.00;;;3.17;;
26474;SDS011;14161;52.270;10.334;2023-04-25T06:04:42;7.70;;;2.45;;
26474;SDS011;14161;52.270;10.334;2023-04-25T06:07:07;9.98;;;3.03;;
26474;SDS011;14161;52.270;10.334;2023-04-25T06:09:34;10.00;;;2.60;;
26474;SDS011;14161;52.270;10.334;2023-04-25T06:11:59;17.17;;;3.60;;
26474;SDS011;14161;52.270;10.334;2023-04-25T06:14:26;14.98;;;3.53;;
26474;SDS011;14161;52.270;10.334;2023-04-25T06:16:52;7.55;;;2.75;;
26474;SDS011;14161;52.270;10.334;2023-04-25T06:19:17;21.90;;;3.90;;
26474;SDS011;14161;52.270;10.334;2023-04-25T06:21:43;10.32;;;2.50;;
26474;SDS011;14161;52.270;10.334;2023-04-25T06:24:09;9.27;;;2.70;;
26474;SDS011;14161;52.270;10.334;2023-04-25T06:26:34;22.05;;;4.55;;
26474;SDS011;14161;52.270;10.334;2023-04-25T06:29:00;17.45;;;3.72;;
26474;SDS011;14161;52.270;10.334;2023-04-25T06:31:25;16.98;;;3.17;;
26474;SDS011;14161;52.270;10.334;2023-04-25T06:33:53;10.57;;;2.63;;
26474;SDS011;14161;52.270;10.334;2023-04-25T06:36:23;15.38;;;2.92;;
26474;SDS011;14161;52.270;10.334;2023-04-25T06:38:52;14.38;;;3.22;;
26474;SDS011;14161;52.270;10.334;2023-04-25T06:41:18;11.25;;;3.13;;
26474;SDS011;14161;52.270;10.334;2023-04-25T06:43:43;12.50;;;3.58;;
26474;SDS011;14161;52.270;10.334;2023-04-25T06:46:20;19.05;;;3.58;;
26474;SDS011;14161;52.270;10.334;2023-04-25T06:48:48;13.30;;;3.63;;
26474;SDS011;14161;52.270;10.334;2023-04-25T06:51:13;20.77;;;3.40;;
26474;SDS011;14161;52.270;10.334;2023-04-25T06:53:39;16.77;;;3.55;;
26474;SDS011;14161;52.270;10.334;2023-04-25T06:56:08;12.68;;;3.05;;
26474;SDS011;14161;52.270;10.334;2023-04-25T06:58:44;15.77;;;2.67;;
26474;SDS011;14161;52.270;10.334;2023-04-25T07:01:14;20.48;;;2.92;;
26474;SDS011;14161;52.270;10.334;2023-04-25T07:03:39;9.90;;;2.50;;
26474;SDS011;14161;52.270;10.334;2023-04-25T07:06:12;17.35;;;3.00;;
26474;SDS011;14161;52.270;10.334;2023-04-25T07:08:38;14.18;;;2.80;;
26474;SDS011;14161;52.270;10.334;2023-04-25T07:11:03;10.50;;;2.17;;
26474;SDS011;14161;52.270;10.334;2023-04-25T07:13:29;12.25;;;2.95;;
26474;SDS011;14161;52.270;10.334;2023-04-25T07:15:55;11.05;;;2.25;;
26474;SDS011;14161;52.270;10.334;2023-04-25T07:18:21;13.55;;;3.15;;
26474;SDS011;14161;52.270;10.334;2023-04-25T07:20:46;11.40;;;2.38;;
26474;SDS011;14161;52.270;10.334;2023-04-25T07:23:12;12.80;;;2.47;;
26474;SDS011;14161;52.270;10.334;2023-04-25T07:25:38;12.00;;;2.15;;
26474;SDS011;14161;52.270;10.334;2023-04-25T07:28:04;12.20;;;2.78;;
26474;SDS011;14161;52.270;10.334;2023-04-25T07:30:29;8.90;;;2.10;;
26474;SDS011;14161;52.270;10.334;2023-04-25T07:32:55;7.40;;;1.90;;
26474;SDS011;14161;52.270;10.334;2023-04-25T07:35:21;6.70;;;1.85;;
26474;SDS011;14161;52.270;10.334;2023-04-25T07:37:47;11.82;;;2.83;;
26474;SDS011;14161;52.270;10.334;2023-04-25T07:40:16;14.48;;;4.10;;
26474;SDS011;14161;52.270;10.334;2023-04-25T07:42:49;12.70;;;3.72;;
26474;SDS011;14161;52.270;10.334;2023-04-25T07:45:18;15.10;;;3.92;;
26474;SDS011;14161;52.270;10.334;2023-04-25T07:47:44;12.40;;;3.53;;
26474;SDS011;14161;52.270;10.334;2023-04-25T07:50:10;7.35;;;2.75;;
26474;SDS011;14161;52.270;10.334;2023-04-25T07:52:36;15.43;;;2.95;;
26474;SDS011;14161;52.270;10.334;2023-04-25T07:55:12;8.13;;;2.47;;
26474;SDS011;14161;52.270;10.334;2023-04-25T07:57:47;10.15;;;2.40;;
26474;SDS011;14161;52.270;10.334;2023-04-25T08:00:13;10.50;;;2.83;;
26474;SDS011;14161;52.270;10.334;2023-04-25T08:02:43;9.10;;;2.33;;
26474;SDS011;14161;52.270;10.334;2023-04-25T08:05:13;10.15;;;2.85;;
26474;SDS011;14161;52.270;10.334;2023-04-25T08:07:43;7.57;;;2.08;;
26474;SDS011;14161;52.270;10.334;2023-04-25T08:10:09;10.23;;;3.47;;
26474;SDS011;14161;52.270;10.334;2023-04-25T08:12:35;8.70;;;2.58;;
26474;SDS011;14161;52.270;10.334;2023-04-25T08:15:00;17.63;;;3.50;;
26474;SDS011;14161;52.270;10.334;2023-04-25T08:17:31;8.70;;;2.65;;
26474;SDS011;14161;52.270;10.334;2023-04-25T08:19:57;13.60;;;2.67;;
26474;SDS011;14161;52.270;10.334;2023-04-25T08:22:29;7.13;;;2.38;;
26474;SDS011;14161;52.270;10.334;2023-04-25T08:25:11;13.52;;;2.80;;
26474;SDS011;14161;52.270;10.334;2023-04-25T08:27:38;12.43;;;2.92;;
26474;SDS011;14161;52.270;10.334;2023-04-25T08:30:04;9.85;;;2.60;;
26474;SDS011;14161;52.270;10.334;2023-04-25T08:32:30;6.60;;;2.40;;
26474;SDS011;14161;52.270;10.334;2023-04-25T08:35:09;11.13;;;3.08;;
26474;SDS011;14161;52.270;10.334;2023-04-25T08:37:35;10.98;;;2.65;;
26474;SDS011;14161;52.270;10.334;2023-04-25T08:40:11;4.68;;;2.10;;
26474;SDS011;14161;52.270;10.334;2023-04-25T08:42:57;8.75;;;2.50;;
26474;SDS011;14161;52.270;10.334;2023-04-25T08:45:23;8.18;;;2.38;;
26474;SDS011;14161;52.270;10.334;2023-04-25T08:47:51;8.73;;;2.42;;
26474;SDS011;14161;52.270;10.334;2023-04-25T08:50:17;9.88;;;2.13;;
26474;SDS011;14161;52.270;10.334;2023-04-25T08:52:44;10.57;;;2.40;;
26474;SDS011;14161;52.270;10.334;2023-04-25T08:55:12;8.93;;;2.13;;
26474;SDS011;14161;52.270;10.334;2023-04-25T08:57:39;13.63;;;2.38;;
26474;SDS011;14161;52.270;10.334;2023-04-25T09:00:09;9.95;;;2.10;;
26474;SDS011;14161;52.270;10.334;2023-04-25T09:02:38;6.45;;;1.70;;
26474;SDS011;14161;52.270;10.334;2023-04-25T09:05:04;8.27;;;2.08;;
26474;SDS011;14161;52.270;10.334;2023-04-25T09:07:31;9.00;;;2.08;;
26474;SDS011;14161;52.270;10.334;2023-04-25T09:09:58;6.90;;;2.03;;
26474;SDS011;14161;52.270;10.334;2023-04-25T09:12:27;8.48;;;1.95;;
26474;SDS011;14161;52.270;10.334;2023-04-25T09:15:01;9.23;;;2.13;;
26474;SDS011;14161;52.270;10.334;2023-04-25T09:17:44;7.40;;;1.58;;
26474;SDS011;14161;52.270;10.334;2023-04-25T09:20:12;8.65;;;2.13;;
26474;SDS011;14161;52.270;10.334;2023-04-25T09:22:39;7.68;;;1.95;;
26474;SDS011;14161;52.270;10.334;2023-04-25T09:25:08;9.85;;;2.33;;
26474;SDS011;14161;52.270;10.334;2023-04-25T09:27:34;8.55;;;1.85;;
26474;SDS011;14161;52.270;10.334;2023-04-25T09:30:16;6.05;;;1.95;;
26474;SDS011;14161;52.270;10.334;2023-04-25T09:33:08;8.80;;;2.13;;
26474;SDS011;14161;52.270;10.334;2023-04-25T09:35:40;5.90;;;1.75;;
26474;SDS011;14161;52.270;10.334;2023-04-25T09:38:14;7.05;;;1.70;;
26474;SDS011;14161;52.270;10.334;2023-04-25T09:41:06;5.10;;;1.88;;
26474;SDS011;14161;52.270;10.334;2023-04-25T09:43:41;9.15;;;2.00;;
26474;SDS011;14161;52.270;10.334;2023-04-25T09:46:10;7.15;;;1.92;;
26474;SDS011;14161;52.270;10.334;2023-04-25T09:48:50;4.28;;;1.73;;
26474;SDS011;14161;52.270;10.334;2023-04-25T09:51:20;7.80;;;1.95;;
26474;SDS011;14161;52.270;10.334;2023-04-25T09:53:50;5.03;;;1.52;;
26474;SDS011;14161;52.270;10.334;2023-04-25T09:56:36;7.45;;;1.63;;
26474;SDS011;14161;52.270;10.334;2023-04-25T09:59:05;8.82;;;2.13;;
26474;SDS011;14161;52.270;10.334;2023-04-25T10:01:32;6.57;;;1.80;;
26474;SDS011;14161;52.270;10.334;2023-04-25T10:04:13;5.55;;;1.77;;
26474;SDS011;14161;52.270;10.334;2023-04-25T10:06:52;4.85;;;1.65;;
26474;SDS011;14161;52.270;10.334;2023-04-25T10:09:19;5.95;;;1.98;;
26474;SDS011;14161;52.270;10.334;2023-04-25T10:11:46;13.80;;;2.38;;
26474;SDS011;14161;52.270;10.334;2023-04-25T10:14:13;6.18;;;1.80;;
26474;SDS011;14161;52.270;10.334;2023-04-25T10:16:40;6.70;;;1.63;;
26474;SDS011;14161;52.270;10.334;2023-04-25T10:19:06;3.55;;;1.27;;
26474;SDS011;14161;52.270;10.334;2023-04-25T10:21:32;8.20;;;1.70;;
26474;SDS011;14161;52.270;10.334;2023-04-25T10:23:58;6.00;;;1.63;;
26474;SDS011;14161;52.270;10.334;2023-04-25T10:26:24;5.35;;;1.35;;
26474;SDS011;14161;52.270;10.334;2023-04-25T10:28:59;4.72;;;1.50;;
26474;SDS011;14161;52.270;10.334;2023-04-25T10:31:26;7.53;;;1.77;;
26474;SDS011;14161;52.270;10.334;2023-04-25T10:33:52;9.65;;;1.77;;
26474;SDS011;14161;52.270;10.334;2023-04-25T10:36:18;2.60;;;1.00;;
26474;SDS011;14161;52.270;10.334;2023-04-25T10:38:46;5.10;;;1.20;;
26474;SDS011;14161;52.270;10.334;2023-04-25T10:41:13;7.47;;;1.30;;
26474;SDS011;14161;52.270;10.334;2023-04-25T10:46:17;2.10;;;0.82;;
26474;SDS011;14161;52.270;10.334;2023-04-25T10:48:57;6.10;;;1.35;;
26474;SDS011;14161;52.270;10.334;2023-04-25T10:51:41;4.93;;;1.48;;
26474;SDS011;14161;52.270;10.334;2023-04-25T10:54:08;3.50;;;1.25;;
26474;SDS011;14161;52.270;10.334;2023-04-25T10:56:36;3.22;;;1.02;;
26474;SDS011;14161;52.270;10.334;2023-04-25T11:01:41;2.25;;;1.10;;
26474;SDS011;14161;52.270;10.334;2023-04-25T11:04:22;5.43;;;1.15;;
26474;SDS011;14161;52.270;10.334;2023-04-25T11:09:26;8.80;;;1.52;;
26474;SDS011;14161;52.270;10.334;2023-04-25T11:11:56;3.30;;;1.10;;
26474;SDS011;14161;52.270;10.334;2023-04-25T11:14:23;3.70;;;1.27;;
26474;SDS011;14161;52.270;10.334;2023-04-25T11:16:52;3.13;;;1.25;;
26474;SDS011;14161;52.270;10.334;2023-04-25T11:19:22;7.07;;;1.40;;
26474;SDS011;14161;52.270;10.334;2023-04-25T11:21:48;5.03;;;1.35;;
26474;SDS011;14161;52.270;10.334;2023-04-25T11:24:13;4.38;;;1.60;;
26474;SDS011;14161;52.270;10.334;2023-04-25T11:26:41;7.93;;;1.60;;
26474;SDS011;14161;52.270;10.334;2023-04-25T11:29:07;6.50;;;1.40;;
26474;SDS011;14161;52.270;10.334;2023-04-25T11:31:33;5.85;;;1.63;;
26474;SDS011;14161;52.270;10.334;2023-04-25T11:33:58;5.70;;;1.73;;
26474;SDS011;14161;52.270;10.334;2023-04-25T11:36:25;5.28;;;1.13;;
26474;SDS011;14161;52.270;10.334;2023-04-25T11:38:51;4.05;;;1.20;;
26474;SDS011;14161;52.270;10.334;2023-04-25T11:41:17;6.55;;;1.70;;
26474;SDS011;14161;52.270;10.334;2023-04-25T11:43:43;4.22;;;1.20;;
26474;SDS011;14161;52.270;10.334;2023-04-25T11:46:09;3.67;;;1.50;;
26474;SDS011;14161;52.270;10.334;2023-04-25T11:48:38;6.47;;;1.40;;
26474;SDS011;14161;52.270;10.334;2023-04-25T11:51:07;4.57;;;1.40;;
26474;SDS011;14161;52.270;10.334;2023-04-25T11:53:33;4.70;;;1.25;;
26474;SDS011;14161;52.270;10.334;2023-04-25T11:55:59;6.22;;;1.23;;
26474;SDS011;14161;52.270;10.334;2023-04-25T11:58:27;2.60;;;1.10;;
26474;SDS011;14161;52.270;10.334;2023-04-25T12:00:53;8.85;;;1.52;;
26474;SDS011;14161;52.270;10.334;2023-04-25T12:03:19;6.43;;;1.50;;
26474;SDS011;14161;52.270;10.334;2023-04-25T12:05:45;3.70;;;1.40;;
26474;SDS011;14161;52.270;10.334;2023-04-25T12:10:40;6.65;;;1.60;;
26474;SDS011;14161;52.270;10.334;2023-04-25T12:13:19;4.05;;;1.40;;
26474;SDS011;14161;52.270;10.334;2023-04-25T12:15:46;3.72;;;1.38;;
26474;SDS011;14161;52.270;10.334;2023-04-25T12:18:11;5.70;;;1.40;;
26474;SDS011;14161;52.270;10.334;2023-04-25T12:20:37;4.03;;;1.48;;
26474;SDS011;14161;52.270;10.334;2023-04-25T12:23:05;6.15;;;1.33;;
26474;SDS011;14161;52.270;10.334;2023-04-25T12:25:41;5.85;;;1.42;;
26474;SDS011;14161;52.270;10.334;2023-04-25T12:28:14;7.35;;;1.30;;
26474;SDS011;14161;52.270;10.334;2023-04-25T12:30:57;2.63;;;0.80;;
26474;SDS011;14161;52.270;10.334;2023-04-25T12:33:24;4.70;;;1.52;;
26474;SDS011;14161;52.270;10.334;2023-04-25T12:35:54;5.28;;;1.35;;
26474;SDS011;14161;52.270;10.334;2023-04-25T12:38:20;7.60;;;1.20;;
26474;SDS011;14161;52.270;10.334;2023-04-25T12:40:46;5.75;;;1.38;;
26474;SDS011;14161;52.270;10.334;2023-04-25T12:43:12;1.75;;;0.80;;
26474;SDS011;14161;52.270;10.334;2023-04-25T12:45:37;4.40;;;0.98;;
26474;SDS011;14161;52.270;10.334;2023-04-25T12:48:03;1.77;;;0.80;;
26474;SDS011;14161;52.270;10.334;2023-04-25T12:50:28;3.75;;;1.00;;
26474;SDS011;14161;52.270;10.334;2023-04-25T12:52:54;5.72;;;1.25;;
26474;SDS011;14161;52.270;10.334;2023-04-25T12:55:19;3.13;;;1.25;;
26474;SDS011;14161;52.270;10.334;2023-04-25T12:57:45;5.55;;;1.75;;
26474;SDS011;14161;52.270;10.334;2023-04-25T13:00:10;5.80;;;1.30;;
26474;SDS011;14161;52.270;10.334;2023-04-25T13:02:39;3.35;;;1.23;;
26474;SDS011;14161;52.270;10.334;2023-04-25T13:05:05;4.85;;;1.15;;
26474;SDS011;14161;52.270;10.334;2023-04-25T13:07:30;5.10;;;1.40;;
26474;SDS011;14161;52.270;10.334;2023-04-25T13:09:56;4.18;;;1.27;;
26474;SDS011;14161;52.270;10.334;2023-04-25T13:12:21;2.78;;;0.93;;
26474;SDS011;14161;52.270;10.334;2023-04-25T13:14:47;6.28;;;1.40;;
26474;SDS011;14161;52.270;10.334;2023-04-25T13:17:12;5.00;;;1.65;;
26474;SDS011;14161;52.270;10.334;2023-04-25T13:19:38;4.20;;;1.05;;
26474;SDS011;14161;52.270;10.334;2023-04-25T13:22:04;4.32;;;1.50;;
26474;SDS011;14161;52.270;10.334;2023-04-25T13:24:29;3.58;;;1.25;;
26474;SDS011;14161;52.270;10.334;2023-04-25T13:26:54;3.92;;;0.73;;
26474;SDS011;14161;52.270;10.334;2023-04-25T13:29:20;2.80;;;1.00;;
26474;SDS011;14161;52.270;10.334;2023-04-25T13:31:46;3.65;;;1.00;;
26474;SDS011;14161;52.270;10.334;2023-04-25T13:34:11;3.35;;;1.13;;
26474;SDS011;14161;52.270;10.334;2023-04-25T13:36:37;8.23;;;1.50;;
26474;SDS011;14161;52.270;10.334;2023-04-25T13:39:03;1.40;;;0.80;;
26474;SDS011;14161;52.270;10.334;2023-04-25T13:41:29;1.98;;;0.52;;
26474;SDS011;14161;52.270;10.334;2023-04-25T13:43:55;1.45;;;0.55;;
26474;SDS011;14161;52.270;10.334;2023-04-25T13:46:20;0.55;;;0.40;;
26474;SDS011;14161;52.270;10.334;2023-04-25T13:48:46;2.40;;;0.43;;
26474;SDS011;14161;52.270;10.334;2023-04-25T13:51:14;4.38;;;0.63;;
26474;SDS011;14161;52.270;10.334;2023-04-25T13:53:41;6.50;;;0.90;;
26474;SDS011;14161;52.270;10.334;2023-04-25T13:56:06;1.17;;;0.50;;
26474;SDS011;14161;52.270;10.334;2023-04-25T13:58:32;1.20;;;0.68;;
26474;SDS011;14161;52.270;10.334;2023-04-25T14:00:58;4.45;;;1.00;;
26474;SDS011;14161;52.270;10.334;2023-04-25T14:03:23;7.18;;;1.00;;
26474;SDS011;14161;52.270;10.334;2023-04-25T14:05:49;3.17;;;0.80;;
26474;SDS011;14161;52.270;10.334;2023-04-25T14:08:16;3.03;;;1.00;;
26474;SDS011;14161;52.270;10.334;2023-04-25T14:10:41;6.38;;;1.35;;
26474;SDS011;14161;52.270;10.334;2023-04-25T14:13:07;4.68;;;1.10;;
26474;SDS011;14161;52.270;10.334;2023-04-25T14:15:33;4.93;;;1.00;;
26474;SDS011;14161;52.270;10.334;2023-04-25T14:17:59;2.65;;;1.20;;
26474;SDS011;14161;52.270;10.334;2023-04-25T14:20:25;4.95;;;1.08;;
26474;SDS011;14161;52.270;10.334;2023-04-25T14:22:51;3.22;;;0.93;;
26474;SDS011;14161;52.270;10.334;2023-04-25T14:25:19;2.83;;;0.60;;
26474;SDS011;14161;52.270;10.334;2023-04-25T14:27:44;3.13;;;0.80;;
26474;SDS011;14161;52.270;10.334;2023-04-25T14:30:14;3.15;;;1.20;;
26474;SDS011;14161;52.270;10.334;2023-04-25T14:32:43;3.92;;;0.88;;
26474;SDS011;14161;52.270;10.334;2023-04-25T14:35:11;4.63;;;0.98;;
26474;SDS011;14161;52.270;10.334;2023-04-25T14:37:37;4.90;;;0.95;;
26474;SDS011;14161;52.270;10.334;2023-04-25T14:40:03;2.03;;;0.98;;
26474;SDS011;14161;52.270;10.334;2023-04-25T14:42:29;3.40;;;0.80;;
26474;SDS011;14161;52.270;10.334;2023-04-25T14:44:55;4.50;;;1.13;;
26474;SDS011;14161;52.270;10.334;2023-04-25T14:47:20;2.20;;;0.70;;
26474;SDS011;14161;52.270;10.334;2023-04-25T14:49:46;3.40;;;1.42;;
26474;SDS011;14161;52.270;10.334;2023-04-25T14:52:18;3.88;;;1.38;;
26474;SDS011;14161;52.270;10.334;2023-04-25T14:54:45;3.45;;;1.20;;